Time;durP1;ratioP1;P1;durP2;ratioP2;P2;SDS_P1;SDS_P2;PMS_P1;PMS_P2;Temp;Humidity;BMP_temperature;BMP_pressure;BME280_temperature;BME280_humidity;BME280_pressure;Samples;Min_cycle;Max_cycle;Signal;HPM_P1;HPM_P2
2022/05/30 00:01:30;;;;;;;3.17;1.63;;;9.00;99.90;;;10.03;100.00;97652.56;4956928;28;20477;-74
2022/05/30 00:04:01;;;;;;;3.60;1.60;;;9.00;99.90;;;10.02;100.00;97655.38;4957038;28;20470;-75
2022/05/30 00:06:32;;;;;;;2.50;1.40;;;9.00;99.90;;;9.97;100.00;97650.72;4958451;28;20498;-74
2022/05/30 00:09:02;;;;;;;1.67;1.37;;;9.00;99.90;;;9.92;100.00;97644.47;4957942;28;20953;-75
2022/05/30 00:11:32;;;;;;;2.27;1.50;;;8.90;99.90;;;9.89;100.00;97643.03;4959528;28;20462;-74
2022/05/30 00:14:00;;;;;;;6.00;1.47;;;8.90;99.90;;;9.87;100.00;97644.25;4957480;28;20483;-75
2022/05/30 00:16:34;;;;;;;2.07;1.43;;;8.80;99.90;;;9.82;100.00;97641.41;4959743;28;20539;-75
2022/05/30 00:19:05;;;;;;;1.20;1.10;;;8.80;99.90;;;9.76;100.00;97636.94;4959965;28;20472;-75
2022/05/30 00:21:36;;;;;;;1.63;1.40;;;8.80;99.90;;;9.71;100.00;97647.16;4955944;28;20466;-75
2022/05/30 00:24:07;;;;;;;1.60;1.30;;;8.80;99.90;;;9.67;100.00;97649.34;4957630;28;20469;-75
2022/05/30 00:26:37;;;;;;;3.07;1.80;;;8.80;99.90;;;9.63;100.00;97649.91;4957577;28;20503;-75
2022/05/30 00:29:08;;;;;;;5.57;1.50;;;8.70;99.90;;;9.59;100.00;97646.88;4957120;28;21258;-75
2022/05/30 00:31:39;;;;;;;1.80;1.20;;;8.60;99.90;;;9.57;100.00;97652.31;4957483;28;20535;-74
2022/05/30 00:34:09;;;;;;;4.80;1.47;;;8.60;99.90;;;9.51;100.00;97642.59;4956325;28;20473;-75
2022/05/30 00:36:39;;;;;;;4.47;1.50;;;8.60;99.90;;;9.40;100.00;97647.56;4958819;28;20474;-75
2022/05/30 00:39:08;;;;;;;2.80;1.50;;;8.60;99.90;;;9.39;100.00;97640.72;4954757;28;20470;-75
2022/05/30 00:41:38;;;;;;;1.70;1.43;;;8.50;99.90;;;9.35;100.00;97642.88;4957712;28;20470;-74
2022/05/30 00:44:08;;;;;;;1.67;1.50;;;8.50;99.90;;;9.35;100.00;97637.66;4958961;28;21112;-75
2022/05/30 00:46:40;;;;;;;2.70;1.70;;;8.40;99.90;;;9.34;100.00;97648.28;4956881;28;20579;-75
2022/05/30 00:49:13;;;;;;;2.70;1.60;;;8.40;99.90;;;9.31;100.00;97641.66;4957223;28;20465;-74
2022/05/30 00:51:48;;;;;;;1.47;1.37;;;8.30;99.90;;;9.30;100.00;97641.84;4957714;28;20547;-75
2022/05/30 00:54:23;;;;;;;2.53;1.30;;;8.40;99.90;;;9.27;100.00;97642.19;4959405;28;21030;-74
2022/05/30 00:56:59;;;;;;;2.60;1.60;;;8.30;99.90;;;9.26;100.00;97638.81;4960941;28;20902;-74
2022/05/30 00:59:28;;;;;;;2.70;1.60;;;8.30;99.90;;;9.23;100.00;97641.00;4961182;28;20500;-74
2022/05/30 01:01:59;;;;;;;3.43;1.40;;;8.20;99.90;;;9.17;100.00;97637.31;4959409;28;20484;-75
2022/05/30 01:07:16;;;;;;;5.10;1.70;;;8.20;99.90;;;9.14;100.00;97636.88;4959660;28;20524;-74
2022/05/30 01:09:50;;;;;;;1.80;1.23;;;8.20;99.90;;;9.05;100.00;97639.66;4961421;28;20477;-74
2022/05/30 01:12:38;;;;;;;2.23;1.40;;;8.10;99.90;;;9.02;100.00;97631.38;4959909;28;20464;-75
2022/05/30 01:15:13;;;;;;;2.17;1.50;;;8.10;99.90;;;9.01;100.00;97637.59;4959729;28;20453;-75
2022/05/30 01:17:52;;;;;;;1.53;1.30;;;8.10;99.90;;;8.94;100.00;97634.13;4960193;28;20460;-74
2022/05/30 01:20:49;;;;;;;2.13;1.40;;;8.10;99.90;;;8.92;100.00;97629.06;4958969;28;20587;-75
2022/05/30 01:24:01;;;;;;;1.57;1.30;;;8.00;99.90;;;8.89;100.00;97623.41;4963729;28;20548;-74
2022/05/30 01:26:53;;;;;;;2.40;1.53;;;8.00;99.90;;;8.78;100.00;97622.13;4964642;28;21003;-74
2022/05/30 01:29:32;;;;;;;2.03;1.40;;;8.00;99.90;;;8.76;100.00;97618.91;4962138;28;20454;-75
2022/05/30 01:32:01;;;;;;;2.07;1.57;;;7.90;99.90;;;8.77;100.00;97612.69;4963445;28;20550;-75
2022/05/30 01:34:31;;;;;;;1.90;1.37;;;7.90;99.90;;;8.77;100.00;97617.91;4961028;28;21123;-75
2022/05/30 01:37:01;;;;;;;1.30;1.20;;;7.90;99.90;;;8.74;100.00;97617.47;4961344;28;20468;-75
2022/05/30 01:39:32;;;;;;;2.43;1.60;;;7.90;99.90;;;8.72;100.00;97611.63;4959475;28;20457;-75
2022/05/30 01:42:03;;;;;;;1.83;1.40;;;7.80;99.90;;;8.69;100.00;97605.00;4961715;28;20467;-74
2022/05/30 01:44:34;;;;;;;2.17;1.67;;;7.80;99.90;;;8.66;100.00;97609.78;4961988;28;20591;-75
2022/05/30 01:47:04;;;;;;;1.33;1.20;;;7.70;99.90;;;8.66;100.00;97612.38;4959496;28;20507;-74
2022/05/30 01:49:33;;;;;;;5.00;1.47;;;7.70;99.90;;;8.58;100.00;97603.69;4964757;28;20465;-74
2022/05/30 01:52:04;;;;;;;1.53;1.33;;;7.70;99.90;;;8.59;100.00;97600.09;4962340;28;20462;-74
2022/05/30 01:54:35;;;;;;;2.37;1.40;;;7.60;99.90;;;8.55;100.00;97600.63;4960333;28;20539;-74
2022/05/30 01:57:07;;;;;;;1.73;1.40;;;7.70;99.90;;;8.52;100.00;97601.00;4960527;28;20469;-74
2022/05/30 01:59:38;;;;;;;1.87;1.67;;;7.60;99.90;;;8.50;100.00;97600.41;4962237;28;20473;-74
2022/05/30 02:02:11;;;;;;;2.50;1.53;;;7.60;99.90;;;8.48;100.00;97602.38;4960594;28;20472;-74
2022/05/30 02:04:42;;;;;;;11.60;2.10;;;7.60;99.90;;;8.41;100.00;97598.88;4961311;28;20557;-75
2022/05/30 02:07:12;;;;;;;1.70;1.50;;;7.60;99.90;;;8.40;100.00;97602.50;4963046;28;20824;-74
2022/05/30 02:09:41;;;;;;;2.23;1.27;;;7.60;99.90;;;8.42;100.00;97603.13;4959965;28;20565;-74
2022/05/30 02:12:12;;;;;;;2.10;1.60;;;7.50;99.90;;;8.42;100.00;97593.50;4959427;28;20468;-75
2022/05/30 02:14:44;;;;;;;1.50;1.40;;;7.40;99.90;;;8.42;100.00;97590.91;4960717;28;20476;-75
2022/05/30 02:17:13;;;;;;;2.07;1.57;;;7.50;99.90;;;8.38;100.00;97587.03;4964418;28;21143;-74
2022/05/30 02:19:45;;;;;;;2.73;1.50;;;7.40;99.90;;;8.35;100.00;97584.81;4960339;28;20464;-74
2022/05/30 02:22:18;;;;;;;2.00;1.60;;;7.40;99.90;;;8.32;100.00;97579.97;4961413;28;20825;-75
2022/05/30 02:24:48;;;;;;;2.50;1.43;;;7.40;99.90;;;8.31;100.00;97580.16;4959983;28;20500;-75
2022/05/30 02:27:19;;;;;;;3.07;1.40;;;7.40;99.90;;;8.27;100.00;97579.66;4960387;28;20504;-75
2022/05/30 02:29:52;;;;;;;1.57;1.47;;;7.40;99.90;;;8.21;100.00;97579.59;4960020;28;20465;-75
2022/05/30 02:32:21;;;;;;;1.60;1.50;;;7.40;99.90;;;8.15;100.00;97577.75;4959485;28;20487;-74
2022/05/30 02:37:39;;;;;;;1.43;1.33;;;7.20;99.90;;;8.15;100.00;97577.75;4958869;28;20473;-74
2022/05/30 02:40:12;;;;;;;2.83;1.30;;;7.20;99.90;;;8.14;100.00;97583.94;4958551;28;20461;-74
2022/05/30 02:42:44;;;;;;;2.80;1.57;;;7.20;99.90;;;8.09;100.00;97589.69;4960603;28;20568;-74
2022/05/30 02:45:15;;;;;;;1.60;1.50;;;7.20;99.90;;;8.07;100.00;97592.47;4959234;28;20543;-74
2022/05/30 02:47:46;;;;;;;1.90;1.70;;;7.20;99.90;;;8.05;100.00;97589.22;4959347;28;20488;-75
2022/05/30 02:50:17;;;;;;;1.60;1.40;;;7.10;99.90;;;8.06;100.00;97593.47;4957673;28;20471;-75
2022/05/30 02:52:48;;;;;;;15.67;1.87;;;7.10;99.90;;;8.06;100.00;97597.84;4958994;28;20476;-75
2022/05/30 02:55:19;;;;;;;5.27;1.60;;;7.20;99.90;;;8.05;100.00;97591.06;4959123;28;20465;-75
2022/05/30 02:57:51;;;;;;;1.50;1.37;;;7.10;99.90;;;8.06;100.00;97596.06;4959863;28;20468;-75
2022/05/30 03:00:26;;;;;;;2.73;1.60;;;7.10;99.90;;;8.07;100.00;97597.69;4958908;28;20469;-75
2022/05/30 03:02:56;;;;;;;5.03;1.50;;;7.10;99.90;;;8.08;100.00;97595.91;4961314;28;21018;-75
2022/05/30 03:05:27;;;;;;;2.37;1.87;;;7.20;99.90;;;8.12;100.00;97593.72;4961175;28;20485;-75
2022/05/30 03:07:56;;;;;;;2.17;1.40;;;7.20;99.90;;;8.12;100.00;97602.34;4957412;28;20501;-80
2022/05/30 03:10:26;;;;;;;6.70;4.00;;;7.20;99.90;;;8.13;100.00;97597.94;4960074;28;20918;-75
2022/05/30 03:12:57;;;;;;;3.40;1.57;;;7.30;99.90;;;8.18;100.00;97599.00;4958630;28;20466;-75
2022/05/30 03:15:29;;;;;;;1.60;1.50;;;7.30;99.90;;;8.20;100.00;97604.84;4959193;28;20473;-75
2022/05/30 03:17:59;;;;;;;4.70;2.10;;;7.30;99.90;;;8.22;100.00;97602.88;4958624;28;20472;-75
2022/05/30 03:20:30;;;;;;;3.37;2.17;;;7.30;99.90;;;8.21;100.00;97606.47;4957852;28;20484;-83
2022/05/30 03:23:02;;;;;;;9.20;5.63;;;7.30;99.90;;;8.25;100.00;97604.31;4959011;28;20482;-75
2022/05/30 03:25:31;;;;;;;3.10;2.40;;;7.30;99.90;;;8.28;100.00;97601.31;4959974;28;20465;-75
2022/05/30 03:28:01;;;;;;;5.07;2.40;;;7.40;99.90;;;8.31;100.00;97607.00;4959910;28;20536;-74
2022/05/30 03:30:36;;;;;;;4.20;3.13;;;7.50;99.90;;;8.33;100.00;97602.41;4962631;28;20458;-75
2022/05/30 03:33:07;;;;;;;3.80;2.83;;;7.50;99.90;;;8.37;100.00;97606.25;4961234;28;20446;-75
2022/05/30 03:35:39;;;;;;;4.43;2.90;;;7.50;99.90;;;8.40;100.00;97611.09;4958454;28;20485;-75
2022/05/30 03:38:09;;;;;;;4.80;3.60;;;7.60;99.90;;;8.45;100.00;97608.75;4957251;28;20922;-75
2022/05/30 03:40:39;;;;;;;4.57;3.60;;;7.60;99.90;;;8.48;100.00;97613.59;4956983;28;20975;-75
2022/05/30 03:43:10;;;;;;;6.63;3.70;;;7.70;99.90;;;8.52;100.00;97614.03;4957081;28;21422;-75
2022/05/30 03:45:44;;;;;;;7.40;4.37;;;7.70;99.90;;;8.60;100.00;97621.75;4954768;28;20551;-75
2022/05/30 03:48:16;;;;;;;9.20;5.40;;;7.70;99.90;;;8.66;100.00;97617.59;4959450;28;20488;-75
2022/05/30 03:50:46;;;;;;;14.90;6.40;;;7.80;99.90;;;8.71;100.00;97625.69;4957497;28;20556;-75
2022/05/30 03:53:17;;;;;;;16.40;8.53;;;7.90;99.90;;;8.77;100.00;97622.31;4959031;28;20501;-76
2022/05/30 03:55:48;;;;;;;11.50;7.30;;;7.90;99.90;;;8.84;100.00;97620.59;4958241;28;20479;-75
2022/05/30 03:58:18;;;;;;;14.20;6.90;;;8.00;99.90;;;8.89;100.00;97626.84;4957298;28;20877;-75
2022/05/30 04:00:50;;;;;;;21.50;11.80;;;8.00;99.90;;;8.94;100.00;97628.91;4958347;28;20469;-76
2022/05/30 04:03:20;;;;;;;16.17;8.03;;;8.10;99.90;;;9.00;100.00;97623.75;4958824;28;20493;-75
2022/05/30 04:05:51;;;;;;;16.60;7.10;;;8.20;99.90;;;9.04;100.00;97624.16;4959395;28;20493;-75
2022/05/30 04:08:22;;;;;;;11.60;8.10;;;8.20;99.90;;;9.09;100.00;97632.25;4954853;28;20494;-75
2022/05/30 04:10:52;;;;;;;14.57;8.80;;;8.30;99.90;;;9.11;100.00;97619.81;4957885;28;20462;-76
2022/05/30 04:13:21;;;;;;;13.80;8.50;;;8.40;99.90;;;9.16;100.00;97630.50;4959009;28;20546;-74
2022/05/30 04:15:52;;;;;;;16.17;9.83;;;8.40;99.90;;;9.21;100.00;97625.50;4959238;28;20463;-75
2022/05/30 04:18:22;;;;;;;17.40;10.33;;;8.40;99.90;;;9.27;100.00;97622.16;4959301;28;20851;-75
2022/05/30 04:20:51;;;;;;;16.67;9.20;;;8.40;99.90;;;9.33;100.00;97629.25;4955295;28;20469;-75
2022/05/30 04:23:22;;;;;;;17.60;9.60;;;8.50;99.90;;;9.37;100.00;97627.84;4957519;28;20477;-75
2022/05/30 04:25:53;;;;;;;16.70;9.17;;;8.50;99.90;;;9.42;100.00;97633.31;4958442;28;20468;-75
2022/05/30 04:28:25;;;;;;;16.90;9.70;;;8.60;99.90;;;9.45;100.00;97621.69;4956360;28;20520;-75
2022/05/30 04:30:55;;;;;;;13.23;9.33;;;8.70;99.90;;;9.47;100.00;97624.91;4956788;28;20464;-75
2022/05/30 04:33:27;;;;;;;16.00;10.60;;;8.70;99.90;;;9.46;100.00;97631.13;4956978;28;20483;-76
2022/05/30 04:35:58;;;;;;;17.00;10.80;;;8.80;99.90;;;9.49;100.00;97628.94;4958665;28;20461;-75
2022/05/30 04:38:28;;;;;;;14.27;9.77;;;8.70;99.90;;;9.56;100.00;97640.25;4956899;28;20471;-74
2022/05/30 04:40:58;;;;;;;18.60;10.67;;;8.70;99.90;;;9.57;100.00;97628.81;4956633;28;20534;-75
2022/05/30 04:43:28;;;;;;;18.43;11.17;;;8.80;99.90;;;9.57;100.00;97630.59;4960372;28;20468;-75
2022/05/30 04:46:10;;;;;;;16.20;9.67;;;8.80;99.90;;;9.57;100.00;97631.41;4957653;28;20559;-72
2022/05/30 04:48:41;;;;;;;20.00;10.70;;;8.80;99.90;;;9.64;100.00;97633.25;4960835;28;20493;-75
2022/05/30 04:51:12;;;;;;;16.87;10.30;;;8.90;99.90;;;9.69;100.00;97633.47;4957406;28;20573;-75
2022/05/30 04:53:42;;;;;;;20.10;10.73;;;8.90;99.90;;;9.67;100.00;97636.28;4956293;28;20472;-74
2022/05/30 04:56:13;;;;;;;20.33;12.47;;;9.00;99.90;;;9.70;100.00;97640.31;4961268;28;20548;-75
2022/05/30 04:58:42;;;;;;;16.90;10.50;;;8.90;99.90;;;9.69;100.00;97634.28;4964667;28;20458;-75
2022/05/30 05:01:14;;;;;;;14.27;9.77;;;8.90;99.90;;;9.73;100.00;97639.94;4964484;28;20456;-75
2022/05/30 05:03:45;;;;;;;17.07;9.77;;;9.00;99.90;;;9.75;100.00;97637.94;4965105;28;20450;-75
2022/05/30 05:06:18;;;;;;;17.85;12.25;;;9.00;99.90;;;9.81;100.00;97637.19;4963093;28;20536;-75
2022/05/30 05:08:59;;;;;;;15.27;10.23;;;9.10;99.90;;;9.76;100.00;97635.13;4965250;28;20221;-75
2022/05/30 05:11:31;;;;;;;16.03;9.80;;;9.10;99.90;;;9.79;100.00;97644.41;4965899;28;20504;-75
2022/05/30 05:14:01;;;;;;;16.87;9.90;;;9.20;99.90;;;9.86;100.00;97642.63;4966712;28;20452;-75
2022/05/30 05:16:32;;;;;;;19.87;10.33;;;9.10;99.90;;;9.85;100.00;97641.84;4965409;28;20528;-74
2022/05/30 05:19:04;;;;;;;14.20;9.40;;;9.20;99.90;;;9.84;100.00;97642.00;4965234;28;20450;-75
2022/05/30 05:21:38;;;;;;;12.90;8.47;;;9.20;99.90;;;9.81;100.00;97645.00;4965982;28;20445;-75
2022/05/30 05:24:10;;;;;;;16.77;10.40;;;9.20;99.90;;;9.85;100.00;97641.84;4966422;28;20976;-75
2022/05/30 05:26:45;;;;;;;16.27;9.83;;;9.20;99.90;;;9.92;100.00;97655.75;4965396;28;20485;-75
2022/05/30 05:29:16;;;;;;;13.13;9.43;;;9.20;99.90;;;9.97;100.00;97647.31;4965797;28;21015;-75
2022/05/30 05:31:47;;;;;;;12.80;8.80;;;9.20;99.90;;;10.05;100.00;97652.38;4966011;28;20504;-75
2022/05/30 05:34:18;;;;;;;17.03;10.33;;;9.20;99.90;;;10.09;100.00;97646.59;4967341;28;20453;-75
2022/05/30 05:36:50;;;;;;;12.93;8.80;;;9.30;99.90;;;10.13;100.00;97647.78;4963790;28;20475;-75
2022/05/30 05:39:22;;;;;;;12.37;8.70;;;9.40;99.90;;;10.18;100.00;97649.84;4962249;28;20446;-75
2022/05/30 05:41:52;;;;;;;13.63;9.20;;;9.50;99.90;;;10.20;100.00;97657.53;4962120;28;20441;-75
2022/05/30 05:44:22;;;;;;;12.07;8.43;;;9.40;99.90;;;10.25;100.00;97657.72;4961503;28;20508;-75
2022/05/30 05:46:57;;;;;;;15.13;9.03;;;9.50;99.90;;;10.30;100.00;97658.78;4962966;28;20452;-75
2022/05/30 05:49:26;;;;;;;19.23;9.00;;;9.50;99.90;;;10.36;100.00;97657.19;4961650;28;20527;-75
2022/05/30 05:51:56;;;;;;;19.13;9.43;;;9.50;99.90;;;10.42;100.00;97656.38;4960699;28;20457;-75
2022/05/30 05:54:28;;;;;;;18.60;8.87;;;9.50;99.90;;;10.48;100.00;97656.41;4961909;28;20452;-75
2022/05/30 05:56:58;;;;;;;11.83;7.30;;;9.60;99.90;;;10.52;100.00;97657.63;4964952;28;20871;-75
2022/05/30 05:59:28;;;;;;;11.57;7.70;;;9.60;99.90;;;10.59;100.00;97657.66;4964610;28;20489;-75
2022/05/30 06:02:00;;;;;;;10.33;7.73;;;9.70;99.90;;;10.63;100.00;97663.28;4964759;28;21289;-75
2022/05/30 06:04:29;;;;;;;10.90;7.37;;;9.80;99.90;;;10.68;100.00;97659.09;4965568;28;20549;-75
2022/05/30 06:07:01;;;;;;;10.67;7.13;;;9.90;99.90;;;10.74;100.00;97665.34;4965027;28;20483;-75
2022/05/30 06:09:32;;;;;;;12.40;7.77;;;9.90;99.90;;;10.76;100.00;97668.59;4964138;28;20898;-75
2022/05/30 06:12:02;;;;;;;12.13;8.40;;;9.90;99.90;;;10.79;100.00;97665.56;4964393;28;20457;-75
2022/05/30 06:14:34;;;;;;;12.77;7.80;;;10.00;99.90;;;10.79;100.00;97666.38;4965380;28;20467;-75
2022/05/30 06:17:06;;;;;;;13.87;7.53;;;10.00;99.90;;;10.81;100.00;97660.94;4964307;28;20437;-75
2022/05/30 06:19:36;;;;;;;13.33;6.97;;;10.00;99.90;;;10.85;100.00;97662.16;4964353;28;20450;-75
2022/05/30 06:22:08;;;;;;;7.80;5.73;;;9.90;99.90;;;10.86;100.00;97661.97;4965326;28;20445;-75
2022/05/30 06:24:38;;;;;;;10.27;6.20;;;9.90;99.90;;;10.91;100.00;97669.22;4965067;28;20445;-75
2022/05/30 06:27:10;;;;;;;12.23;6.60;;;10.00;99.90;;;10.90;100.00;97664.97;4963901;28;20456;-75
2022/05/30 06:29:40;;;;;;;19.60;7.50;;;10.00;99.90;;;10.92;100.00;97673.44;4966319;28;20555;-75
2022/05/30 06:32:12;;;;;;;9.47;7.03;;;10.00;99.90;;;10.98;100.00;97670.03;4964862;28;20452;-75
2022/05/30 06:34:44;;;;;;;12.63;7.33;;;10.10;99.90;;;11.03;100.00;97671.06;4964152;28;20458;-75
2022/05/30 06:37:15;;;;;;;21.97;7.27;;;10.30;99.90;;;11.09;100.00;97672.06;4964638;28;20540;-75
2022/05/30 06:39:46;;;;;;;7.87;6.23;;;10.20;99.90;;;11.15;100.00;97667.84;4963339;28;20461;-75
2022/05/30 06:42:16;;;;;;;10.17;6.10;;;10.40;99.90;;;11.18;100.00;97663.00;4965224;28;20967;-75
2022/05/30 06:44:46;;;;;;;9.57;5.50;;;10.30;99.90;;;11.24;100.00;97664.84;4963098;28;20470;-75
2022/05/30 06:47:19;;;;;;;8.27;5.50;;;10.40;99.90;;;11.31;100.00;97667.47;4964980;28;20445;-75
2022/05/30 06:49:48;;;;;;;11.43;5.97;;;10.40;99.90;;;11.36;100.00;97671.06;4964063;28;20500;-75
2022/05/30 06:52:19;;;;;;;8.40;5.80;;;10.50;99.90;;;11.42;100.00;97675.50;4963826;28;20489;-75
2022/05/30 06:54:49;;;;;;;9.50;6.00;;;10.70;99.90;;;11.51;100.00;97674.31;4959321;28;20454;-76
2022/05/30 07:00:13;;;;;;;7.90;4.97;;;10.80;99.90;;;11.57;100.00;97673.50;4959589;28;20455;-75
2022/05/30 07:02:45;;;;;;;11.37;5.60;;;10.80;99.90;;;11.65;100.00;97669.06;4959557;28;20504;-76
2022/05/30 07:05:15;;;;;;;10.03;5.57;;;10.90;99.90;;;11.73;100.00;97671.50;4959344;28;20446;-75
2022/05/30 07:07:46;;;;;;;7.87;4.53;;;11.00;99.90;;;11.79;100.00;97668.06;4960134;28;20463;-75
2022/05/30 07:10:16;;;;;;;6.73;4.27;;;11.10;99.90;;;11.86;100.00;97684.59;4959731;28;20486;-75
2022/05/30 07:12:46;;;;;;;7.50;4.93;;;11.10;99.90;;;11.92;100.00;97683.75;4959437;28;20967;-75
2022/05/30 07:15:15;;;;;;;8.53;4.30;;;11.10;99.90;;;11.93;100.00;97680.16;4959099;28;20464;-76
2022/05/30 07:17:46;;;;;;;8.47;4.87;;;11.30;99.90;;;11.99;100.00;97679.31;4959908;28;20453;-76
2022/05/30 07:20:17;;;;;;;7.60;4.70;;;11.30;99.90;;;11.98;100.00;97678.50;4958505;28;20496;-75
2022/05/30 07:22:47;;;;;;;11.83;4.60;;;11.40;99.90;;;11.98;100.00;97682.94;4959878;28;20465;-75
2022/05/30 07:25:17;;;;;;;5.40;4.50;;;11.50;99.90;;;11.99;100.00;97681.94;4959101;28;20550;-75
2022/05/30 07:27:47;;;;;;;12.37;4.20;;;11.40;99.90;;;12.04;100.00;97679.53;4959557;28;20520;-75
2022/05/30 07:30:17;;;;;;;4.43;3.47;;;11.40;99.90;;;12.08;100.00;97686.75;4958702;28;20488;-76
2022/05/30 07:32:49;;;;;;;11.30;5.17;;;11.50;99.90;;;12.17;100.00;97694.41;4959014;28;20544;-75
2022/05/30 07:35:20;;;;;;;8.70;4.10;;;11.60;99.90;;;12.21;100.00;97685.94;4957891;28;20480;-75
2022/05/30 07:37:50;;;;;;;11.77;3.67;;;11.60;99.90;;;12.27;100.00;97694.78;4959707;28;20441;-75
2022/05/30 07:40:22;;;;;;;5.90;4.10;;;11.60;99.90;;;12.27;100.00;97695.59;4960147;28;20434;-75
2022/05/30 07:42:58;;;;;;;8.27;3.83;;;11.60;99.90;;;12.31;100.00;97698.59;4962061;28;20541;-75
2022/05/30 07:45:29;;;;;;;7.00;4.20;;;11.60;99.90;;;12.33;100.00;97696.56;4964767;28;20981;-75
2022/05/30 07:48:02;;;;;;;7.13;3.57;;;11.60;99.90;;;12.30;100.00;97691.75;4963963;28;20452;-75
2022/05/30 07:50:32;;;;;;;8.70;3.63;;;11.60;99.90;;;12.31;100.00;97688.94;4963457;28;20549;-75
2022/05/30 07:53:01;;;;;;;7.03;3.47;;;11.60;99.90;;;12.35;100.00;97692.75;4963215;28;21010;-75
2022/05/30 07:55:31;;;;;;;13.27;3.70;;;11.70;99.90;;;12.41;100.00;97686.66;4963347;28;20820;-76
2022/05/30 07:58:05;;;;;;;4.20;3.30;;;11.70;99.90;;;12.46;100.00;97686.84;4963834;28;20477;-75
2022/05/30 08:00:37;;;;;;;5.63;3.40;;;11.80;99.90;;;12.49;100.00;97683.00;4962564;28;20457;-75
2022/05/30 08:03:11;;;;;;;7.47;3.17;;;11.90;99.90;;;12.51;100.00;97689.66;4963830;28;20437;-75
2022/05/30 08:05:43;;;;;;;4.73;3.10;;;11.90;99.90;;;12.52;100.00;97683.41;4963192;28;20441;-75
2022/05/30 08:08:13;;;;;;;7.07;3.47;;;11.90;99.90;;;12.58;100.00;97687.81;4962614;28;20433;-76
2022/05/30 08:10:44;;;;;;;4.20;2.50;;;11.90;99.90;;;12.63;100.00;97699.50;4962071;28;20508;-75
2022/05/30 08:13:12;;;;;;;5.00;3.00;;;11.90;99.90;;;12.68;100.00;97699.66;4963068;28;20830;-75
2022/05/30 08:15:43;;;;;;;3.67;2.53;;;12.00;99.90;;;12.71;100.00;97688.75;4963512;28;20469;-75
2022/05/30 08:18:17;;;;;;;4.40;2.90;;;12.00;99.90;;;12.76;100.00;97692.38;4963041;28;20499;-75
2022/05/30 08:20:47;;;;;;;5.83;2.50;;;12.00;99.70;;;12.82;100.00;97695.97;4962851;28;20452;-76
2022/05/30 08:23:17;;;;;;;3.70;2.97;;;12.00;99.50;;;12.83;99.77;97700.22;4962694;28;20457;-75
2022/05/30 08:25:48;;;;;;;3.90;2.30;;;12.10;99.50;;;12.92;99.62;97698.94;4960890;28;20453;-75
2022/05/30 08:28:19;;;;;;;7.13;2.67;;;12.20;99.80;;;12.95;97.36;97694.06;4963479;28;20460;-75
2022/05/30 08:30:49;;;;;;;5.90;2.10;;;12.20;98.80;;;13.04;96.48;97698.09;4964161;28;20497;-76
2022/05/30 08:33:23;;;;;;;3.47;2.23;;;12.30;99.00;;;13.17;96.54;97689.34;4961969;28;20445;-75
2022/05/30 08:36:02;;;;;;;4.03;3.10;;;12.50;99.30;;;13.27;94.30;97691.50;4962224;28;20441;-75
2022/05/30 08:38:36;;;;;;;3.83;3.03;;;12.70;98.70;;;13.35;92.19;97693.88;4963459;28;20937;-75
2022/05/30 08:44:01;;;;;;;6.57;2.07;;;13.00;98.30;;;13.60;92.86;97689.44;4958572;28;20475;-75
2022/05/30 08:46:40;;;;;;;3.30;2.53;;;13.10;98.40;;;13.70;91.26;97691.56;4960498;28;20507;-75
2022/05/30 08:49:21;;;;;;;3.47;2.60;;;13.20;97.90;;;13.77;89.68;97687.06;4961842;28;20488;-75
2022/05/30 08:52:36;;;;;;;4.77;2.30;;;13.30;97.60;;;13.85;90.26;97689.44;4959974;28;20456;-75
2022/05/30 08:55:26;;;;;;;2.53;1.90;;;13.40;97.70;;;13.91;89.80;97689.38;4960860;28;20466;-75
2022/05/30 08:58:16;;;;;;;3.23;2.33;;;13.50;97.70;;;13.96;87.90;97689.50;4962494;28;20490;-75
2022/05/30 09:00:52;;;;;;;5.60;2.20;;;13.60;97.30;;;14.05;88.80;97684.78;4963421;28;20444;-75
2022/05/30 09:03:31;;;;;;;6.60;4.20;;;13.60;97.40;;;14.13;88.47;97686.31;4963935;28;20437;-75
2022/05/30 09:06:13;;;;;;;3.50;2.13;;;13.50;97.20;;;14.25;88.55;97680.13;4961428;28;20436;-75
2022/05/30 09:08:50;;;;;;;4.47;2.47;;;13.70;97.60;;;14.34;87.06;97688.53;4963941;28;20449;-76
2022/05/30 09:11:33;;;;;;;6.30;2.47;;;13.80;97.30;;;14.45;85.30;97680.72;4963325;28;20480;-76
2022/05/30 09:14:13;;;;;;;8.10;1.97;;;13.90;96.70;;;14.50;84.36;97680.88;4962364;28;21022;-75
2022/05/30 09:16:51;;;;;;;5.23;1.70;;;14.10;96.60;;;14.50;81.70;97680.06;4961575;28;20559;-76
2022/05/30 09:19:25;;;;;;;4.07;1.80;;;14.10;95.70;;;14.47;77.63;97677.88;4962546;28;20575;-75
2022/05/30 09:22:01;;;;;;;3.00;1.50;;;14.10;94.80;;;14.45;78.42;97675.47;4962171;28;20822;-75
2022/05/30 09:24:35;;;;;;;8.77;2.10;;;14.10;95.00;;;14.43;78.14;97682.78;4962060;28;20491;-75
2022/05/30 09:27:06;;;;;;;2.10;1.70;;;14.00;94.90;;;14.49;78.50;97687.16;4961200;28;20465;-75
2022/05/30 09:29:50;;;;;;;8.30;1.90;;;14.00;95.10;;;14.53;78.44;97682.25;4962508;28;20523;-75
2022/05/30 09:32:39;;;;;;;3.67;1.67;;;14.00;95.10;;;14.58;78.69;97685.81;4961673;28;20870;-75
2022/05/30 09:35:28;;;;;;;3.03;1.80;;;14.00;95.30;;;14.57;78.02;97683.41;4963063;28;20469;-76
2022/05/30 09:38:12;;;;;;;4.30;2.17;;;13.90;94.90;;;14.49;75.28;97681.88;4961998;28;20453;-75
2022/05/30 09:40:52;;;;;;;3.43;1.60;;;13.70;94.30;;;14.45;75.51;97678.09;4962066;28;20492;-75
2022/05/30 09:43:30;;;;;;;2.30;1.70;;;13.80;94.70;;;14.47;76.25;97681.28;4964505;28;20444;-75
2022/05/30 09:46:20;;;;;;;5.63;1.90;;;13.70;94.80;;;14.49;76.25;97676.63;4961972;28;20539;-76
2022/05/30 09:49:09;;;;;;;3.63;2.80;;;13.80;94.90;;;14.52;77.40;97678.00;4962241;28;20555;-75
2022/05/30 09:51:46;;;;;;;5.73;2.37;;;13.80;95.20;;;14.56;77.74;97677.34;4963408;28;20493;-75
2022/05/30 09:54:37;;;;;;;2.90;1.70;;;13.80;95.50;;;14.61;78.75;97672.22;4963385;28;20454;-75
2022/05/30 09:57:15;;;;;;;4.20;2.10;;;13.90;95.70;;;14.59;78.13;97676.09;4961736;28;20544;-75
2022/05/30 09:59:49;;;;;;;3.93;1.40;;;14.00;95.20;;;14.62;78.02;97680.91;4962280;28;20452;-76
2022/05/30 10:02:25;;;;;;;2.93;1.70;;;13.90;95.10;;;14.63;77.90;97679.91;4962979;28;20535;-75
2022/05/30 10:05:00;;;;;;;2.57;1.50;;;13.90;95.30;;;14.58;77.29;97675.28;4965673;28;20449;-75
2022/05/30 10:07:32;;;;;;;2.40;1.93;;;13.80;94.90;;;14.63;77.74;97677.25;4964101;28;20453;-75
2022/05/30 10:10:15;;;;;;;3.87;2.83;;;13.90;95.20;;;14.68;77.92;97679.25;4961069;28;20441;-75
2022/05/30 10:12:56;;;;;;;7.23;2.33;;;14.00;95.40;;;14.63;78.87;97679.09;4961669;28;20820;-76
2022/05/30 10:15:31;;;;;;;7.23;2.17;;;13.90;95.80;;;14.61;80.61;97681.97;4963010;28;20449;-75
2022/05/30 10:18:24;;;;;;;3.50;1.90;;;13.80;96.40;;;14.64;80.55;97680.72;4966950;28;20437;-76
2022/05/30 10:21:39;;;;;;;4.00;2.10;;;13.80;96.00;;;14.67;80.06;97682.88;4965574;28;20469;-75
2022/05/30 10:30:30;;;;;;;2.30;1.77;;;14.00;95.50;;;14.73;76.29;97684.63;4963622;28;20453;-75
2022/05/30 10:33:15;;;;;;;3.83;2.13;;;14.00;94.90;;;14.81;76.51;97686.97;4963654;28;20453;-75
2022/05/30 10:35:58;;;;;;;6.83;1.93;;;14.10;95.20;;;14.77;74.31;97688.44;4965808;28;20441;-76
2022/05/30 10:38:45;;;;;;;2.33;1.50;;;14.00;94.50;;;14.76;74.91;97692.06;4964457;28;20469;-75
2022/05/30 10:41:26;;;;;;;3.93;2.00;;;14.10;94.70;;;14.80;74.79;97693.25;4965583;28;20449;-75
2022/05/30 10:44:09;;;;;;;5.33;1.93;;;14.10;94.60;;;14.77;73.92;97696.31;4965397;28;20476;-75
2022/05/30 10:46:51;;;;;;;2.20;2.00;;;13.90;94.40;;;14.79;74.94;97699.53;4964218;28;20460;-75
2022/05/30 10:49:25;;;;;;;3.03;1.50;;;14.00;94.90;;;14.81;76.37;97710.66;4963746;28;20441;-75
2022/05/30 10:52:01;;;;;;;4.53;1.90;;;14.10;95.30;;;14.72;71.11;97701.44;4963283;28;20523;-75
2022/05/30 10:54:38;;;;;;;2.13;1.30;;;14.00;93.20;;;14.61;66.95;97698.53;4964280;28;20446;-76
2022/05/30 10:57:21;;;;;;;2.30;1.20;;;14.00;92.70;;;14.66;67.18;97710.22;4965429;28;20842;-75
2022/05/30 11:00:04;;;;;;;2.53;1.67;;;14.00;93.00;;;14.67;67.34;97709.22;4963873;28;20448;-75
2022/05/30 11:02:53;;;;;;;3.67;1.60;;;14.00;92.80;;;14.70;65.47;97706.94;4965061;28;20438;-75